Time;durP1;ratioP1;P1;durP2;ratioP2;P2;SDS_P1;SDS_P2;PMS_P1;PMS_P2;Temp;Humidity;BMP_temperature;BMP_pressure;BME280_temperature;BME280_humidity;BME280_pressure;Samples;Min_cycle;Max_cycle;Signal;HPM_P1;HPM_P2
2023/08/06 00:02:00;;;;;;;6.80;3.55;;;20.50;85.90;;;;;;4952321;28;20486;-40
2023/08/06 00:04:27;;;;;;;6.05;3.50;;;;;;;;;;4951403;28;20143;-37
2023/08/06 00:06:54;;;;;;;5.88;3.85;;;20.40;85.60;;;;;;4951850;28;20134;-38
2023/08/06 00:09:21;;;;;;;5.60;3.60;;;;;;;;;;4954531;28;20603;-34
2023/08/06 00:11:49;;;;;;;5.38;3.63;;;21.30;86.30;;;;;;4962750;28;20074;-35
2023/08/06 00:14:17;;;;;;;5.75;3.55;;;20.70;85.70;;;;;;4970216;28;20567;-35
2023/08/06 00:16:44;;;;;;;6.65;4.07;;;19.80;73.50;;;;;;4969768;28;20050;-36
2023/08/06 00:19:12;;;;;;;4.95;3.65;;;;;;;;;;4951452;29;20066;-35
2023/08/06 00:21:39;;;;;;;5.22;3.55;;;;;;;;;;4951626;28;20130;-36
2023/08/06 00:24:06;;;;;;;5.68;3.50;;;19.10;82.80;;;;;;4951231;28;20059;-37
2023/08/06 00:26:32;;;;;;;6.22;3.70;;;20.00;83.60;;;;;;4951298;28;20572;-40
2023/08/06 00:29:01;;;;;;;5.85;3.58;;;20.30;67.80;;;;;;4951412;28;20130;-37
2023/08/06 00:31:27;;;;;;;5.22;3.38;;;19.90;85.30;;;;;;4950966;28;20445;-39
2023/08/06 00:33:54;;;;;;;7.05;4.15;;;20.80;71.10;;;;;;4952169;28;20069;-35
2023/08/06 00:36:21;;;;;;;5.18;3.58;;;20.10;84.30;;;;;;4954959;28;20139;-37
2023/08/06 00:38:47;;;;;;;7.28;3.72;;;19.60;86.10;;;;;;4970393;28;20141;-37
2023/08/06 00:41:14;;;;;;;4.95;3.65;;;;;;;;;;4970386;28;20130;-35
2023/08/06 00:43:41;;;;;;;6.72;3.83;;;20.30;85.80;;;;;;4969960;28;20149;-36
2023/08/06 00:46:09;;;;;;;5.43;3.63;;;20.60;69.60;;;;;;4970442;28;20138;-39
2023/08/06 00:48:36;;;;;;;5.47;3.67;;;20.40;86.40;;;;;;4970442;28;20130;-37
2023/08/06 00:51:02;;;;;;;6.13;3.83;;;20.30;71.10;;;;;;4967782;28;20130;-36
2023/08/06 00:53:29;;;;;;;6.15;3.95;;;19.90;85.20;;;;;;4970033;28;20130;-38
2023/08/06 00:55:56;;;;;;;7.47;3.83;;;19.40;85.10;;;;;;4970253;28;20547;-39
2023/08/06 00:58:23;;;;;;;5.68;4.03;;;;;;;;;;4969491;28;20130;-34
2023/08/06 01:00:50;;;;;;;5.75;3.97;;;20.80;86.60;;;;;;4954609;28;20130;-39
2023/08/06 01:03:18;;;;;;;5.88;4.00;;;20.20;67.80;;;;;;4954247;28;20744;-39
2023/08/06 01:05:44;;;;;;;5.65;3.78;;;21.00;86.00;;;;;;4963228;28;20133;-37
2023/08/06 01:08:16;;;;;;;6.03;3.90;;;20.20;72.90;;;;;;4960552;28;20134;-35
2023/08/06 01:10:50;;;;;;;5.40;3.60;;;21.00;77.50;;;;;;4972306;28;20411;-38
2023/08/06 01:13:19;;;;;;;6.07;3.75;;;20.30;85.50;;;;;;4973179;28;20154;-38
2023/08/06 01:15:47;;;;;;;5.85;3.83;;;20.20;67.90;;;;;;4973545;28;20081;-35
2023/08/06 01:18:14;;;;;;;5.55;3.60;;;20.00;85.70;;;;;;4973535;28;20134;-36
2023/08/06 01:20:42;;;;;;;5.68;3.95;;;20.30;85.50;;;;;;4973513;28;20082;-39
2023/08/06 01:23:09;;;;;;;5.82;3.75;;;19.60;86.10;;;;;;4971547;28;20134;-36
2023/08/06 01:25:38;;;;;;;5.65;3.65;;;20.20;67.80;;;;;;4973135;28;20081;-35
2023/08/06 01:28:07;;;;;;;6.43;4.10;;;20.40;86.00;;;;;;4973160;28;20137;-39
2023/08/06 01:30:35;;;;;;;6.03;3.92;;;20.90;86.20;;;;;;4973323;28;20130;-35
2023/08/06 01:33:04;;;;;;;5.78;3.80;;;20.20;78.70;;;;;;4973042;28;20058;-36
2023/08/06 01:35:30;;;;;;;5.97;4.03;;;20.10;85.50;;;;;;4972933;28;20055;-37
2023/08/06 01:37:59;;;;;;;6.07;3.63;;;20.10;85.50;;;;;;4972645;28;20150;-36
2023/08/06 01:40:27;;;;;;;6.53;4.20;;;;;;;;;;4968295;28;20134;-38
2023/08/06 01:42:53;;;;;;;5.75;3.70;;;20.00;85.60;;;;;;4972675;28;20054;-37
2023/08/06 01:45:20;;;;;;;6.07;3.63;;;20.70;71.40;;;;;;4973049;28;20134;-32
2023/08/06 01:47:47;;;;;;;5.93;3.60;;;20.50;86.50;;;;;;4972934;28;20135;-39
2023/08/06 01:50:13;;;;;;;5.82;3.67;;;20.80;86.30;;;;;;4972907;28;20130;-39
2023/08/06 01:52:40;;;;;;;4.10;3.30;;;;;;;;;;4972319;28;20137;-35
2023/08/06 01:55:09;;;;;;;4.68;3.30;;;19.80;85.60;;;;;;4972999;28;20089;-35
2023/08/06 01:57:36;;;;;;;7.30;4.10;;;20.00;71.70;;;;;;4969316;28;20129;-39
2023/08/06 02:00:04;;;;;;;5.60;3.55;;;;;;;;;;4957298;28;20134;-34
2023/08/06 02:02:31;;;;;;;4.97;3.50;;;;;;;;;;4966333;28;20138;-37
2023/08/06 02:04:58;;;;;;;6.10;3.70;;;20.30;86.00;;;;;;4972563;28;20523;-36
2023/08/06 02:07:25;;;;;;;5.30;3.58;;;;;;;;;;4971231;28;20400;-33
2023/08/06 02:09:51;;;;;;;4.95;3.47;;;20.40;85.70;;;;;;4971837;28;20475;-36
2023/08/06 02:12:19;;;;;;;5.78;3.90;;;20.40;85.80;;;;;;4972406;28;20130;-40
2023/08/06 02:14:46;;;;;;;5.43;3.60;;;19.90;85.50;;;;;;4958305;28;20467;-36
2023/08/06 02:17:13;;;;;;;4.55;3.22;;;;;;;;;;4953301;28;20142;-35
2023/08/06 02:19:43;;;;;;;4.47;3.30;;;;;;;;;;4952864;28;20134;-36
2023/08/06 02:22:09;;;;;;;5.63;3.60;;;20.70;72.60;;;;;;4952722;28;20386;-36
2023/08/06 02:24:36;;;;;;;5.20;3.53;;;;;;;;;;4953299;28;20129;-36
2023/08/06 02:27:03;;;;;;;5.13;3.53;;;;;;;;;;4953144;28;20155;-33
2023/08/06 02:29:31;;;;;;;4.05;3.10;;;20.00;77.80;;;;;;4954206;28;20134;-36
2023/08/06 02:31:58;;;;;;;4.55;3.50;;;20.70;85.80;;;;;;4968364;28;20129;-37
2023/08/06 02:34:25;;;;;;;4.53;3.20;;;20.30;85.70;;;;;;4972211;28;20134;-35
2023/08/06 02:36:52;;;;;;;5.63;2.90;;;21.00;75.50;;;;;;4971464;28;20078;-38
2023/08/06 02:39:19;;;;;;;6.72;3.10;;;19.80;85.80;;;;;;4972182;28;20082;-35
2023/08/06 02:41:46;;;;;;;6.28;3.10;;;;;;;;;;4972129;28;20129;-33
2023/08/06 02:44:13;;;;;;;4.47;3.30;;;19.20;85.10;;;;;;4971997;28;20142;-38
2023/08/06 02:46:41;;;;;;;4.95;3.42;;;20.10;67.80;;;;;;4961564;28;20142;-37
2023/08/06 02:49:08;;;;;;;5.25;3.13;;;;;;;;;;4966855;28;20483;-36
2023/08/06 02:51:35;;;;;;;4.90;3.50;;;20.80;86.30;;;;;;4972142;28;20473;-38
2023/08/06 02:54:02;;;;;;;5.00;3.55;;;19.40;85.60;;;;;;4971886;28;20134;-35
2023/08/06 02:56:28;;;;;;;5.63;3.40;;;19.90;79.30;;;;;;4971932;28;20061;-35
2023/08/06 02:58:55;;;;;;;4.35;3.13;;;20.60;86.10;;;;;;4963476;28;20082;-39
2023/08/06 03:01:23;;;;;;;4.30;3.20;;;20.40;85.70;;;;;;4971812;28;20130;-37
2023/08/06 03:03:51;;;;;;;4.55;3.28;;;19.90;72.70;;;;;;4957145;28;20047;-36
2023/08/06 03:06:18;;;;;;;5.18;3.15;;;20.00;85.60;;;;;;4952754;28;20171;-36
2023/08/06 03:08:45;;;;;;;4.18;3.10;;;;;;;;;;4952162;28;20567;-35
2023/08/06 03:11:11;;;;;;;4.00;2.65;;;20.50;85.70;;;;;;4959266;28;20448;-38
2023/08/06 03:13:38;;;;;;;4.93;3.33;;;20.50;86.00;;;;;;4971692;28;20133;-39
2023/08/06 03:16:05;;;;;;;4.18;3.00;;;;;;;;;;4971466;28;20559;-35
2023/08/06 03:18:32;;;;;;;4.35;3.03;;;;;;;;;;4971413;28;20435;-37
2023/08/06 03:21:00;;;;;;;5.22;3.20;;;19.80;72.90;;;;;;4960009;28;20126;-37
2023/08/06 03:23:27;;;;;;;3.58;2.67;;;20.30;72.40;;;;;;4952077;28;20587;-35
2023/08/06 03:25:54;;;;;;;3.70;2.80;;;19.50;86.10;;;;;;4952126;28;20138;-38
2023/08/06 03:28:22;;;;;;;4.15;3.00;;;20.30;85.70;;;;;;4952049;28;20471;-37
2023/08/06 03:30:49;;;;;;;3.58;2.60;;;;;;;;;;4952217;28;20052;-39
2023/08/06 03:33:15;;;;;;;3.95;2.97;;;19.90;74.30;;;;;;4952062;28;20129;-36
2023/08/06 03:35:42;;;;;;;4.50;3.22;;;20.80;86.00;;;;;;4955357;28;20129;-38
2023/08/06 03:38:10;;;;;;;3.53;2.88;;;19.90;86.40;;;;;;4969878;28;20130;-36
2023/08/06 03:40:37;;;;;;;4.10;2.97;;;19.50;85.70;;;;;;4970961;28;20078;-35
2023/08/06 03:43:04;;;;;;;4.95;3.10;;;;;;;;;;4971004;28;20134;-34
2023/08/06 03:45:31;;;;;;;3.88;2.67;;;20.30;86.10;;;;;;4971486;28;20138;-36
2023/08/06 03:47:57;;;;;;;3.45;2.88;;;20.60;85.60;;;;;;4971037;28;20126;-38
2023/08/06 03:50:24;;;;;;;4.22;2.90;;;19.80;70.90;;;;;;4971057;28;20137;-36
2023/08/06 03:52:51;;;;;;;3.35;2.63;;;19.60;86.20;;;;;;4969357;28;20146;-36
2023/08/06 03:55:19;;;;;;;4.70;3.17;;;20.40;86.10;;;;;;4955546;28;20130;-39
2023/08/06 03:57:45;;;;;;;3.70;2.70;;;20.20;86.10;;;;;;4951736;28;20500;-36
2023/08/06 04:00:13;;;;;;;3.40;2.53;;;20.00;67.80;;;;;;4968343;28;20126;-32
2023/08/06 04:02:40;;;;;;;4.18;2.80;;;20.30;86.60;;;;;;4970464;28;20661;-37
2023/08/06 04:05:07;;;;;;;3.42;2.67;;;19.60;74.70;;;;;;4971083;28;20083;-36
2023/08/06 04:07:34;;;;;;;3.70;2.72;;;;;;;;;;4959693;28;20130;-38
2023/08/06 04:10:02;;;;;;;3.97;3.00;;;20.10;75.10;;;;;;4951111;28;20134;-34
2023/08/06 04:12:31;;;;;;;3.90;2.40;;;20.20;85.70;;;;;;4951183;28;20481;-36
2023/08/06 04:14:58;;;;;;;3.47;2.50;;;20.30;85.80;;;;;;4956576;28;20064;-36
2023/08/06 04:17:25;;;;;;;3.65;2.85;;;;;;;;;;4961751;28;20131;-35
2023/08/06 04:19:53;;;;;;;3.88;3.00;;;20.40;85.80;;;;;;4961492;28;20478;-37
2023/08/06 04:22:20;;;;;;;3.17;2.53;;;20.50;86.10;;;;;;4960719;28;20127;-39
2023/08/06 04:24:46;;;;;;;3.45;2.70;;;19.70;85.70;;;;;;4962457;28;20474;-38
2023/08/06 04:27:14;;;;;;;3.10;2.67;;;20.50;73.70;;;;;;4961280;28;20122;-36
2023/08/06 04:29:42;;;;;;;3.28;2.60;;;19.60;85.40;;;;;;4961134;28;20134;-37
2023/08/06 04:32:10;;;;;;;3.67;2.80;;;20.50;86.10;;;;;;4958700;28;20133;-35
2023/08/06 04:34:37;;;;;;;3.67;2.50;;;;;;;;;;4960309;28;20130;-34
2023/08/06 04:37:04;;;;;;;3.08;2.50;;;20.00;76.50;;;;;;4960552;28;20583;-37
2023/08/06 04:39:31;;;;;;;3.47;2.70;;;19.70;85.30;;;;;;4970235;28;20147;-40
2023/08/06 04:41:58;;;;;;;3.78;2.47;;;;;;;;;;4954949;28;20556;-36
2023/08/06 04:44:24;;;;;;;3.47;2.30;;;19.90;85.50;;;;;;4950914;28;20058;-38
2023/08/06 04:46:52;;;;;;;2.90;2.30;;;19.90;77.40;;;;;;4950905;28;20146;-37
2023/08/06 04:49:20;;;;;;;3.35;2.60;;;20.20;86.10;;;;;;4951180;28;20130;-38
2023/08/06 04:51:47;;;;;;;3.35;2.47;;;19.90;85.90;;;;;;4968019;28;20131;-37
2023/08/06 04:54:13;;;;;;;4.38;2.53;;;19.10;85.20;;;;;;4962787;28;20134;-40
2023/08/06 04:56:40;;;;;;;2.70;2.40;;;;;;;;;;4964346;28;20125;-37
2023/08/06 04:59:07;;;;;;;2.42;2.10;;;19.80;85.40;;;;;;4959163;28;20146;-39
2023/08/06 05:01:34;;;;;;;2.42;1.92;;;;;;;;;;4949903;28;20552;-34
2023/08/06 05:04:02;;;;;;;3.33;2.40;;;19.20;85.20;;;;;;4950000;28;20568;-37
2023/08/06 05:06:29;;;;;;;4.35;2.35;;;;;;;;;;4954252;28;20496;-33
2023/08/06 05:08:56;;;;;;;2.80;2.13;;;;;;;;;;4969203;28;20587;-32
2023/08/06 05:11:23;;;;;;;3.05;2.33;;;20.10;85.60;;;;;;4970203;28;20452;-39
2023/08/06 05:13:51;;;;;;;2.63;2.17;;;;;;;;;;4967514;28;20050;-33
2023/08/06 05:16:17;;;;;;;3.42;2.38;;;20.30;86.00;;;;;;4969577;28;20603;-38
2023/08/06 05:18:44;;;;;;;3.00;2.30;;;;;;;;;;4969585;28;20129;-35
2023/08/06 05:21:12;;;;;;;2.88;2.25;;;20.40;85.70;;;;;;4969185;28;20134;-35
2023/08/06 05:23:39;;;;;;;3.70;2.28;;;;;;;;;;4968688;28;20131;-33
2023/08/06 05:26:06;;;;;;;2.88;2.00;;;19.90;85.80;;;;;;4969745;28;20129;-39
2023/08/06 05:28:33;;;;;;;3.20;2.13;;;19.90;72.30;;;;;;4969748;28;20567;-39
2023/08/06 05:31:00;;;;;;;4.15;2.20;;;20.30;86.40;;;;;;4968101;28;20134;-36
2023/08/06 05:33:26;;;;;;;2.05;1.85;;;19.80;85.90;;;;;;4969397;28;20559;-37
2023/08/06 05:35:53;;;;;;;2.90;2.28;;;;;;;;;;4969589;28;20134;-34
2023/08/06 05:38:21;;;;;;;2.65;2.08;;;19.60;86.10;;;;;;4969890;28;20146;-40
2023/08/06 05:40:48;;;;;;;2.67;2.00;;;19.70;86.00;;;;;;4969033;28;20489;-39
2023/08/06 05:43:16;;;;;;;2.97;2.33;;;;;;;;;;4969727;28;20050;-32
2023/08/06 05:45:45;;;;;;;4.20;2.10;;;19.80;86.10;;;;;;4972842;28;20587;-37
2023/08/06 05:48:12;;;;;;;2.80;2.30;;;19.90;81.60;;;;;;4957434;28;20481;-35
2023/08/06 05:50:38;;;;;;;2.85;2.20;;;20.00;85.70;;;;;;4953852;28;20130;-35
2023/08/06 05:53:05;;;;;;;4.95;2.20;;;;;;;;;;4953549;28;20130;-36
2023/08/06 05:55:34;;;;;;;3.55;2.38;;;20.60;86.00;;;;;;4953758;28;20130;-37
2023/08/06 05:58:00;;;;;;;2.80;2.15;;;19.90;85.60;;;;;;4953450;28;20459;-34
2023/08/06 06:00:27;;;;;;;2.90;2.30;;;20.90;86.10;;;;;;4972043;28;20126;-36
2023/08/06 06:02:54;;;;;;;3.47;2.88;;;;;;;;;;4956176;28;20134;-32
2023/08/06 06:05:21;;;;;;;3.10;2.58;;;19.30;85.60;;;;;;4973080;28;20133;-38
2023/08/06 06:07:47;;;;;;;2.72;2.40;;;19.20;85.20;;;;;;4964027;28;20579;-35
2023/08/06 06:10:14;;;;;;;2.55;2.33;;;20.20;74.00;;;;;;4961816;28;20130;-35
2023/08/06 06:12:42;;;;;;;3.97;2.40;;;20.10;86.00;;;;;;4962265;28;20126;-36
2023/08/06 06:15:10;;;;;;;2.63;2.20;;;19.90;77.70;;;;;;4963568;28;20161;-35
2023/08/06 06:17:37;;;;;;;2.83;2.25;;;20.10;78.20;;;;;;4962149;28;20134;-35
2023/08/06 06:20:04;;;;;;;2.70;2.30;;;20.60;85.90;;;;;;4977463;28;20130;-38
2023/08/06 06:22:31;;;;;;;4.18;2.30;;;18.70;81.40;;;;;;4963291;28;20054;-35
2023/08/06 06:24:58;;;;;;;2.33;2.00;;;20.20;86.20;;;;;;4962011;28;20122;-37
2023/08/06 06:27:25;;;;;;;2.83;2.15;;;;;;;;;;4962395;28;20126;-34
2023/08/06 06:29:54;;;;;;;3.03;2.30;;;21.00;86.00;;;;;;4963250;28;20169;-38
2023/08/06 06:32:21;;;;;;;2.85;2.10;;;;;;;;;;4962317;28;20043;-32
2023/08/06 06:34:48;;;;;;;2.67;2.17;;;21.00;86.20;;;;;;4961547;28;20126;-30
2023/08/06 06:37:15;;;;;;;2.80;1.88;;;;;;;;;;4976160;28;20126;-33
2023/08/06 06:39:42;;;;;;;2.88;2.17;;;19.70;85.40;;;;;;4981058;28;20144;-35
2023/08/06 06:42:09;;;;;;;2.53;2.00;;;19.50;85.70;;;;;;4963830;28;20122;-35
2023/08/06 06:44:35;;;;;;;2.13;1.83;;;20.70;77.40;;;;;;4960874;28;20130;-34
2023/08/06 06:47:04;;;;;;;2.30;2.10;;;19.60;70.30;;;;;;4957939;28;20131;-30
2023/08/06 06:49:31;;;;;;;2.10;1.90;;;20.20;86.10;;;;;;4962327;28;20138;-29
2023/08/06 06:51:58;;;;;;;2.45;2.00;;;;;;;;;;4958266;28;20050;-31
2023/08/06 06:54:24;;;;;;;3.35;2.25;;;19.70;85.50;;;;;;4959301;28;20130;-30
2023/08/06 06:56:51;;;;;;;2.72;1.98;;;18.90;85.10;;;;;;4966695;28;20134;-30
2023/08/06 06:59:18;;;;;;;4.47;2.20;;;19.70;75.60;;;;;;4962675;28;20126;-30
2023/08/06 07:01:44;;;;;;;5.00;2.00;;;20.10;85.60;;;;;;4952912;28;20150;-30
2023/08/06 07:04:12;;;;;;;2.30;2.10;;;19.10;85.50;;;;;;4952837;28;20082;-35
2023/08/06 07:06:39;;;;;;;2.40;2.20;;;20.30;86.10;;;;;;4958014;28;20126;-35
2023/08/06 07:09:06;;;;;;;3.05;1.98;;;;;;;;;;4964915;28;20126;-33
2023/08/06 07:11:33;;;;;;;2.30;1.90;;;20.30;86.10;;;;;;4960929;28;20061;-38
2023/08/06 07:14:00;;;;;;;2.30;2.10;;;;;;;;;;4971715;28;20137;-31
2023/08/06 07:16:27;;;;;;;2.22;1.88;;;20.90;73.60;;;;;;4971741;28;20138;-34
2023/08/06 07:18:54;;;;;;;2.38;2.03;;;19.40;85.30;;;;;;4971453;28;20533;-37
2023/08/06 07:21:22;;;;;;;3.63;2.03;;;19.80;85.70;;;;;;4973135;28;20126;-37
2023/08/06 07:23:49;;;;;;;2.20;1.90;;;20.50;85.90;;;;;;4971303;28;20050;-33
2023/08/06 07:26:17;;;;;;;3.15;1.90;;;;;;;;;;4971847;28;20058;-33
2023/08/06 07:28:44;;;;;;;3.13;1.90;;;19.00;85.10;;;;;;4971473;28;20492;-38
2023/08/06 07:31:11;;;;;;;2.45;2.08;;;21.10;75.60;;;;;;4971664;28;20059;-37
2023/08/06 07:33:37;;;;;;;1.95;1.75;;;20.60;86.10;;;;;;4971111;28;20126;-37
2023/08/06 07:36:09;;;;;;;2.60;2.10;;;19.90;85.80;;;;;;4966676;28;20109;-34
2023/08/06 07:38:37;;;;;;;2.38;1.90;;;20.30;86.50;;;;;;4965602;28;20214;-35
2023/08/06 07:41:04;;;;;;;2.60;2.00;;;20.20;85.60;;;;;;4965909;28;20129;-34
2023/08/06 07:43:31;;;;;;;2.95;2.13;;;;;;;;;;4951713;28;20138;-34
2023/08/06 07:45:59;;;;;;;2.72;1.90;;;20.30;85.60;;;;;;4952221;28;20130;-30
2023/08/06 07:48:25;;;;;;;3.00;2.40;;;19.90;78.40;;;;;;4952113;28;20131;-31
2023/08/06 07:50:53;;;;;;;3.35;2.00;;;19.20;85.30;;;;;;4957498;28;20134;-31
2023/08/06 07:53:20;;;;;;;2.70;2.30;;;20.10;85.90;;;;;;4970936;28;20088;-31
2023/08/06 07:55:50;;;;;;;2.60;2.30;;;19.80;85.40;;;;;;4971333;28;20138;-29
2023/08/06 07:58:17;;;;;;;2.08;1.88;;;;;;;;;;4969850;28;20066;-35
2023/08/06 08:00:45;;;;;;;2.35;1.75;;;21.10;85.60;;;;;;4951783;29;20130;-29
2023/08/06 08:03:12;;;;;;;2.75;2.10;;;20.10;75.00;;;;;;4956548;28;20070;-31
2023/08/06 08:05:39;;;;;;;2.53;2.10;;;19.80;71.10;;;;;;4963059;28;20575;-31
2023/08/06 08:08:06;;;;;;;3.40;2.20;;;20.20;78.80;;;;;;4969747;28;20130;-36
2023/08/06 08:10:33;;;;;;;9.60;2.47;;;20.90;86.00;;;;;;4970490;28;20085;-37
2023/08/06 08:13:01;;;;;;;2.47;2.20;;;19.90;85.20;;;;;;4970695;28;20726;-35
2023/08/06 08:15:29;;;;;;;3.55;2.40;;;20.60;70.50;;;;;;4971094;28;20137;-35
2023/08/06 08:17:55;;;;;;;2.35;2.15;;;19.80;84.10;;;;;;4954443;28;20556;-37
2023/08/06 08:20:22;;;;;;;3.80;2.20;;;19.60;71.50;;;;;;4951583;28;20105;-35
2023/08/06 08:22:49;;;;;;;2.70;2.10;;;19.20;85.00;;;;;;4951399;28;20130;-36
2023/08/06 08:25:16;;;;;;;2.72;2.25;;;20.60;86.10;;;;;;4951549;28;20568;-39
2023/08/06 08:27:43;;;;;;;3.38;2.08;;;20.30;86.00;;;;;;4951479;28;20130;-34
2023/08/06 08:30:11;;;;;;;2.63;2.25;;;19.40;85.10;;;;;;4951460;28;20134;-34
2023/08/06 08:32:38;;;;;;;3.67;2.20;;;20.10;86.20;;;;;;4952261;28;20086;-34
2023/08/06 08:35:05;;;;;;;4.40;2.17;;;19.80;71.60;;;;;;4954915;28;20134;-34
2023/08/06 08:37:32;;;;;;;3.10;2.22;;;20.50;85.60;;;;;;4970311;28;20130;-35
2023/08/06 08:40:00;;;;;;;2.22;2.03;;;;;;;;;;4970389;28;20139;-34
2023/08/06 08:42:27;;;;;;;2.55;2.20;;;20.10;75.40;;;;;;4970200;28;20078;-33
2023/08/06 08:44:54;;;;;;;2.45;2.10;;;19.70;85.40;;;;;;4970754;28;20126;-34
2023/08/06 08:47:22;;;;;;;2.55;2.17;;;20.50;85.90;;;;;;4970405;28;20138;-35
2023/08/06 08:49:49;;;;;;;2.70;1.88;;;;;;;;;;4958001;28;20138;-35
2023/08/06 08:52:15;;;;;;;2.40;2.20;;;19.90;85.10;;;;;;4951350;28;20130;-36
2023/08/06 08:54:43;;;;;;;3.25;2.33;;;19.70;84.90;;;;;;4951272;28;20134;-36
2023/08/06 08:57:09;;;;;;;2.95;2.00;;;19.90;76.90;;;;;;4951215;28;20469;-35
2023/08/06 08:59:36;;;;;;;2.50;2.10;;;20.50;85.00;;;;;;4962745;28;20130;-36
2023/08/06 09:02:03;;;;;;;2.22;2.03;;;;;;;;;;4969573;28;20135;-33
2023/08/06 09:04:32;;;;;;;3.42;2.28;;;19.60;84.90;;;;;;4970194;28;20130;-36
2023/08/06 09:06:59;;;;;;;2.83;2.22;;;20.80;85.20;;;;;;4970337;28;20054;-35
2023/08/06 09:09:27;;;;;;;2.42;2.00;;;21.50;73.10;;;;;;4970161;28;20134;-38
2023/08/06 09:11:54;;;;;;;2.50;2.28;;;;;;;;;;4969844;28;20054;-34
2023/08/06 09:14:21;;;;;;;3.08;2.15;;;20.30;84.70;;;;;;4969849;28;20666;-35
2023/08/06 09:16:47;;;;;;;2.13;1.92;;;21.10;85.90;;;;;;4967523;28;20125;-36
2023/08/06 09:19:15;;;;;;;2.28;2.08;;;20.60;75.90;;;;;;4961530;28;20531;-37
2023/08/06 09:21:43;;;;;;;2.20;2.00;;;20.50;67.10;;;;;;4954373;28;20052;-33
2023/08/06 09:24:11;;;;;;;2.60;1.88;;;;;;;;;;4963410;28;20134;-33
2023/08/06 09:26:38;;;;;;;2.45;2.20;;;;;;;;;;4965493;28;20055;-30
2023/08/06 09:29:06;;;;;;;2.13;1.92;;;21.30;85.50;;;;;;4964407;28;20080;-30
2023/08/06 09:31:34;;;;;;;3.22;1.77;;;20.50;79.50;;;;;;4962271;28;20142;-30
2023/08/06 09:34:01;;;;;;;2.20;1.90;;;19.50;83.60;;;;;;4963449;28;20055;-31
2023/08/06 09:36:28;;;;;;;2.35;2.15;;;20.80;84.70;;;;;;4961053;28;20236;-32
2023/08/06 09:38:56;;;;;;;3.72;2.00;;;21.20;73.60;;;;;;4962883;28;20130;-33
2023/08/06 09:41:27;;;;;;;2.95;2.00;;;21.10;72.10;;;;;;4961904;28;20074;-31
2023/08/06 09:43:54;;;;;;;4.10;1.70;;;20.60;84.20;;;;;;4960782;28;20606;-30
2023/08/06 09:46:21;;;;;;;3.55;2.00;;;20.90;75.50;;;;;;4963007;28;20437;-36
2023/08/06 09:48:48;;;;;;;2.72;2.00;;;21.60;84.10;;;;;;4959035;28;20055;-39
2023/08/06 09:51:15;;;;;;;2.22;1.80;;;21.50;78.00;;;;;;4953753;28;20101;-35
2023/08/06 09:53:42;;;;;;;2.85;1.73;;;;;;;;;;4954366;28;20508;-37
2023/08/06 09:56:10;;;;;;;2.53;1.80;;;20.70;71.00;;;;;;4966129;28;20142;-35
2023/08/06 09:58:37;;;;;;;1.60;1.50;;;21.10;71.70;;;;;;4960125;28;20126;-36
2023/08/06 10:01:04;;;;;;;2.00;1.80;;;21.10;83.40;;;;;;4972791;28;20138;-29
2023/08/06 10:03:30;;;;;;;3.80;2.00;;;21.50;83.60;;;;;;4972604;28;20133;-31
2023/08/06 10:05:58;;;;;;;3.38;2.10;;;;;;;;;;4972809;28;20508;-32
2023/08/06 10:08:24;;;;;;;2.20;1.90;;;20.50;83.70;;;;;;4972181;28;20133;-30
2023/08/06 10:10:51;;;;;;;2.05;1.70;;;21.20;83.60;;;;;;4959320;28;20485;-30
2023/08/06 10:13:19;;;;;;;2.75;1.90;;;20.90;83.80;;;;;;4965510;28;20096;-31
2023/08/06 10:15:46;;;;;;;2.33;1.77;;;21.10;83.00;;;;;;4972581;28;20489;-30
2023/08/06 10:18:13;;;;;;;2.22;1.67;;;;;;;;;;4972236;28;20129;-34
2023/08/06 10:20:41;;;;;;;2.30;1.80;;;;;;;;;;4967749;28;20446;-30
2023/08/06 10:23:07;;;;;;;2.05;1.73;;;20.90;82.90;;;;;;4972262;28;20616;-30
2023/08/06 10:25:35;;;;;;;2.25;1.90;;;20.80;65.50;;;;;;4971734;28;20138;-30
2023/08/06 10:28:02;;;;;;;2.05;1.80;;;;;;;;;;4965367;28;20047;-31
2023/08/06 10:30:31;;;;;;;7.07;1.90;;;21.10;83.10;;;;;;4951788;28;20734;-30
2023/08/06 10:33:00;;;;;;;3.45;2.13;;;21.40;65.70;;;;;;4953280;28;20082;-32
2023/08/06 10:35:35;;;;;;;3.65;1.95;;;21.40;65.60;;;;;;4953183;28;20451;-34
2023/08/06 10:38:06;;;;;;;2.00;1.80;;;21.80;83.30;;;;;;4952655;28;20524;-31
2023/08/06 10:40:33;;;;;;;4.47;1.80;;;21.50;76.30;;;;;;4954237;28;20051;-31
2023/08/06 10:43:00;;;;;;;3.70;1.92;;;21.50;75.90;;;;;;4952774;28;20097;-32
2023/08/06 10:45:28;;;;;;;3.60;1.80;;;21.40;82.60;;;;;;4953019;28;20058;-33
2023/08/06 10:47:57;;;;;;;3.50;1.85;;;21.50;83.00;;;;;;4952892;28;20058;-31
2023/08/06 10:50:24;;;;;;;3.05;1.63;;;21.80;83.10;;;;;;4952777;28;20062;-30
2023/08/06 10:52:50;;;;;;;2.72;1.70;;;21.40;82.50;;;;;;4953001;28;20131;-30
2023/08/06 10:55:23;;;;;;;2.60;1.67;;;21.60;65.40;;;;;;4953020;28;20134;-31
2023/08/06 10:57:50;;;;;;;4.22;1.70;;;22.00;83.30;;;;;;4956396;28;20055;-31
2023/08/06 11:00:17;;;;;;;2.45;1.80;;;;;;;;;;4954580;28;20130;-33
2023/08/06 11:02:44;;;;;;;2.67;1.70;;;22.40;83.80;;;;;;4952372;28;20126;-31
2023/08/06 11:05:13;;;;;;;2.58;1.70;;;21.90;68.50;;;;;;4952861;28;20097;-33
2023/08/06 11:07:39;;;;;;;2.25;1.58;;;21.50;82.70;;;;;;4952701;28;20138;-31
2023/08/06 11:10:07;;;;;;;2.38;1.70;;;21.90;82.80;;;;;;4952816;28;20139;-30
2023/08/06 11:12:34;;;;;;;2.25;1.75;;;22.20;83.50;;;;;;4952434;28;20131;-30
2023/08/06 11:15:01;;;;;;;2.70;2.10;;;;;;;;;;4953285;28;20135;-35
2023/08/06 11:17:29;;;;;;;2.75;1.80;;;21.10;82.60;;;;;;4952760;28;20134;-30
2023/08/06 11:19:56;;;;;;;2.63;1.75;;;;;;;;;;4952593;28;20138;-33
2023/08/06 11:22:24;;;;;;;3.08;1.70;;;21.80;82.80;;;;;;4952233;28;20566;-30
2023/08/06 11:24:50;;;;;;;1.77;1.60;;;22.30;83.60;;;;;;4963892;28;20130;-31
2023/08/06 11:27:17;;;;;;;1.90;1.65;;;21.70;65.30;;;;;;4971556;28;20129;-31
2023/08/06 11:29:44;;;;;;;2.25;1.70;;;22.40;74.40;;;;;;4971335;28;20089;-31
2023/08/06 11:32:11;;;;;;;3.03;1.85;;;21.40;82.10;;;;;;4970866;28;20133;-32
2023/08/06 11:34:38;;;;;;;4.32;1.80;;;;;;;;;;4971652;28;20130;-33
2023/08/06 11:37:05;;;;;;;2.85;1.52;;;21.90;83.10;;;;;;4971253;28;20135;-30
2023/08/06 11:39:34;;;;;;;2.10;1.58;;;21.80;65.20;;;;;;4971215;28;20054;-34
2023/08/06 11:42:02;;;;;;;1.77;1.60;;;22.40;73.70;;;;;;4971160;28;20133;-31
2023/08/06 11:44:30;;;;;;;2.05;1.60;;;21.80;65.20;;;;;;4971338;28;20051;-30
2023/08/06 11:46:59;;;;;;;2.10;1.60;;;22.60;83.50;;;;;;4966998;28;20130;-29
2023/08/06 11:49:39;;;;;;;3.95;1.80;;;21.50;82.50;;;;;;4962913;28;20130;-30
2023/08/06 11:52:10;;;;;;;2.65;1.60;;;21.50;82.50;;;;;;4951743;28;20421;-30
2023/08/06 11:54:38;;;;;;;2.40;1.60;;;20.90;79.30;;;;;;4951984;28;20122;-32
2023/08/06 11:57:06;;;;;;;3.28;1.63;;;21.90;78.00;;;;;;4951803;28;20134;-31
2023/08/06 11:59:33;;;;;;;3.40;1.80;;;;;;;;;;4963168;28;20567;-34
2023/08/06 12:02:02;;;;;;;2.13;1.70;;;21.90;68.30;;;;;;4971165;28;20129;-35
2023/08/06 12:04:29;;;;;;;2.60;1.75;;;;;;;;;;4955452;28;20130;-35
2023/08/06 12:06:55;;;;;;;2.88;1.67;;;20.70;82.10;;;;;;4951735;28;20127;-37
2023/08/06 12:09:22;;;;;;;3.05;1.60;;;22.00;83.40;;;;;;4951932;28;20078;-36
2023/08/06 12:11:50;;;;;;;3.10;1.67;;;21.80;65.50;;;;;;4951634;28;20151;-34
2023/08/06 12:14:17;;;;;;;2.20;1.60;;;;;;;;;;4951561;28;20130;-36
2023/08/06 12:16:44;;;;;;;3.65;2.08;;;21.90;82.90;;;;;;4951560;28;20582;-35
2023/08/06 12:19:11;;;;;;;2.30;1.98;;;21.50;82.50;;;;;;4952802;28;20237;-35
2023/08/06 12:21:38;;;;;;;2.53;1.60;;;;;;;;;;4967152;28;20539;-32
2023/08/06 12:24:06;;;;;;;2.35;1.63;;;21.50;83.30;;;;;;4970518;28;20506;-38
2023/08/06 12:26:33;;;;;;;2.33;1.70;;;21.60;82.90;;;;;;4970762;28;20081;-38
2023/08/06 12:29:01;;;;;;;1.70;1.50;;;21.70;65.60;;;;;;4970705;28;20145;-35
2023/08/06 12:31:28;;;;;;;2.40;1.80;;;;;;;;;;4970508;28;20134;-37
2023/08/06 12:33:54;;;;;;;2.67;1.70;;;21.60;83.00;;;;;;4970407;28;20563;-36
2023/08/06 12:36:21;;;;;;;1.52;1.40;;;;;;;;;;4962964;28;20122;-35
2023/08/06 12:38:48;;;;;;;2.60;1.60;;;;;;;;;;4970067;28;20055;-36
2023/08/06 12:41:15;;;;;;;2.55;1.50;;;21.30;82.90;;;;;;4970780;28;20054;-34
2023/08/06 12:43:42;;;;;;;2.00;1.30;;;;;;;;;;4970344;28;20146;-35
2023/08/06 12:46:12;;;;;;;2.15;1.70;;;21.60;83.60;;;;;;4970633;28;20291;-39
2023/08/06 12:48:38;;;;;;;2.20;1.58;;;21.30;79.90;;;;;;4970488;28;20051;-33
2023/08/06 12:51:05;;;;;;;1.83;1.42;;;21.20;83.00;;;;;;4970262;28;20133;-35
2023/08/06 12:53:32;;;;;;;2.45;1.67;;;22.40;84.10;;;;;;4969148;28;20051;-35
2023/08/06 12:55:59;;;;;;;2.85;1.77;;;21.60;74.50;;;;;;4970277;28;20563;-35
2023/08/06 12:58:25;;;;;;;2.58;1.52;;;21.80;82.80;;;;;;4967513;28;20126;-35
2023/08/06 13:00:52;;;;;;;2.53;1.65;;;21.30;83.50;;;;;;4950831;28;20173;-36
2023/08/06 13:03:20;;;;;;;2.40;1.55;;;21.20;68.30;;;;;;4950891;28;20131;-36
2023/08/06 13:05:47;;;;;;;2.97;1.55;;;;;;;;;;4950850;28;20142;-33
2023/08/06 13:08:14;;;;;;;3.20;1.70;;;21.70;82.70;;;;;;4955140;28;20559;-35
2023/08/06 13:10:40;;;;;;;2.38;1.55;;;21.70;82.70;;;;;;4954398;28;20134;-34